»·PEaware :: N130LM KJFK-KEWR

N130LM :: KJFK-KEWR

FLIGHT INFORMATION

Flight Status: Arrived
Operator: Privately registered:
United States
More flights under this callsign
Pilot: Justin M. (19723)
Aircraft: DASSAULT AVIATION FALCON 50
(FA50)
More flights by this aircraft type
Origin: KJFK Kennedy Intl
United States
Destination: KEWR Newark Intl
United States
More flights between these airports :: More routes between these airports
Route: JFK5 V16 DIXIE V276 RBV V249 SBJ
File this flight plan on PilotEdge
Remarks:
Altitude:
(Current/Filed)
6,000ft
Speed:
(Current/Filed)
250kts
Departed: 01-Dec-22 05:25 AM
Arrived: 01-Dec-22 06:16 AM
Distance/Time
Traveled:
18nm/0:51
Distance/Time
To Go:
Arrived

Flight Plot

Page will automatically refresh every two minutes.

Flight plan parsing failed; only flown route is shown


Map Options




Map Legend


Flown Route
Filed Route
Departure Airport
Arrival Airport
Navaid (VOR, NDB)
Fix

Horizontal Profiles

Position Reports

Time Latitude Longitude Heading Altitude Ground
Speed
01-Dec-22 05:10 40.649225 -73.810899 301 12ft 0kts
01-Dec-22 05:12 40.649225 -73.810899 301 12ft 0kts
01-Dec-22 05:13 40.649225 -73.810899 301 12ft 0kts
01-Dec-22 05:14 40.649225 -73.810899 301 12ft 0kts
01-Dec-22 05:14 40.649225 -73.810899 301 12ft 0kts
01-Dec-22 05:15 40.649225 -73.810899 301 12ft 0kts
01-Dec-22 05:16 40.649225 -73.810899 301 12ft 0kts
01-Dec-22 05:17 40.649225 -73.810899 301 12ft 0kts
01-Dec-22 05:19 40.649453 -73.811968 233 12ft 12kts
01-Dec-22 05:19 40.649808 -73.813883 300 12ft 4kts
01-Dec-22 05:20 40.650231 -73.814868 280 12ft 0kts
01-Dec-22 05:21 40.649528 -73.815585 210 12ft 5kts
01-Dec-22 05:22 40.649136 -73.815891 210 12ft 0kts
01-Dec-22 05:23 40.648180 -73.816317 120 12ft 0kts
01-Dec-22 05:24 40.642161 -73.803129 121 49ft 150kts
01-Dec-22 05:25 40.610196 -73.744229 126 2308ft 229kts
01-Dec-22 05:26 40.568803 -73.671192 126 4647ft 263kts
01-Dec-22 05:27 40.508804 -73.640093 219 5011ft 268kts
01-Dec-22 05:28 40.458102 -73.710042 226 4999ft 261kts
01-Dec-22 05:29 40.408119 -73.780701 226 5000ft 265kts
01-Dec-22 05:30 40.357726 -73.851994 227 5008ft 267kts
01-Dec-22 05:31 40.307623 -73.922923 227 5965ft 265kts
01-Dec-22 05:32 40.256603 -73.995199 227 5998ft 267kts
01-Dec-22 05:33 40.206592 -74.066260 227 5999ft 265kts
01-Dec-22 05:34 40.149191 -74.126864 211 6000ft 267kts
01-Dec-22 05:35 40.146544 -74.203579 330 5223ft 267kts
01-Dec-22 05:36 40.212945 -74.245915 334 4575ft 266kts
01-Dec-22 05:37 40.274646 -74.284689 334 3991ft 222kts
01-Dec-22 05:38 40.331597 -74.314429 355 4005ft 222kts
01-Dec-22 05:39 40.393597 -74.318082 357 3883ft 224kts
01-Dec-22 05:40 40.455153 -74.313813 21 2985ft 216kts
01-Dec-22 05:41 40.504107 -74.284020 25 3001ft 189kts
01-Dec-22 05:42 40.551214 -74.254338 25 2919ft 174kts
01-Dec-22 05:43 40.594000 -74.227280 25 2087ft 170kts
01-Dec-22 05:44 40.632523 -74.202858 25 1112ft 141kts
01-Dec-22 05:45 40.667052 -74.180930 25 363ft 136kts
01-Dec-22 05:46 40.711853 -74.151940 26 1229ft 210kts
01-Dec-22 05:47 40.761945 -74.101224 34 2113ft 248kts
01-Dec-22 05:48 40.808074 -74.136363 254 2485ft 230kts
01-Dec-22 05:49 40.772443 -74.213318 237 2997ft 258kts
01-Dec-22 05:50 40.716145 -74.267101 207 2992ft 246kts
01-Dec-22 05:51 40.660783 -74.304724 207 3000ft 218kts
01-Dec-22 05:52 40.606782 -74.341440 207 3000ft 219kts
01-Dec-22 05:53 40.552514 -74.378354 207 3000ft 219kts
01-Dec-22 05:54 40.497095 -74.398330 140 3018ft 217kts
01-Dec-22 05:55 40.499699 -74.327396 57 3000ft 217kts
01-Dec-22 05:56 40.534862 -74.265753 31 2984ft 189kts
01-Dec-22 05:57 40.579374 -74.236478 25 2205ft 175kts
01-Dec-22 05:58 40.622163 -74.209389 25 1351ft 149kts
01-Dec-22 05:59 40.657023 -74.187287 25 553ft 134kts
01-Dec-22 06:00 40.691661 -74.163933 41 825ft 165kts
01-Dec-22 06:01 40.729318 -74.111365 43 1969ft 206kts
01-Dec-22 06:02 40.776916 -74.132208 298 3009ft 218kts
01-Dec-22 06:03 40.777602 -74.209241 256 2985ft 204kts
01-Dec-22 06:04 40.762748 -74.277995 223 3002ft 192kts
01-Dec-22 06:05 40.715703 -74.312105 207 3002ft 196kts
01-Dec-22 06:06 40.666319 -74.345382 207 3001ft 202kts
01-Dec-22 06:07 40.615726 -74.379485 207 2999ft 203kts
01-Dec-22 06:08 40.565523 -74.413266 204 2999ft 202kts
01-Dec-22 06:09 40.532898 -74.368902 107 2999ft 198kts
01-Dec-22 06:10 40.537094 -74.301985 57 2998ft 193kts
01-Dec-22 06:11 40.566626 -74.245903 36 2948ft 186kts
01-Dec-22 06:12 40.612653 -74.215412 25 1501ft 175kts
01-Dec-22 06:13 40.651914 -74.190530 25 654ft 143kts
01-Dec-22 06:14 40.684847 -74.169659 25 15ft 109kts
01-Dec-22 06:15 40.693496 -74.166015 353 14ft 15kts
01-Dec-22 06:16 40.694818 -74.168416 295 14ft 2kts
01-Dec-22 06:17 40.698848 -74.167665 4 14ft 19kts
01-Dec-22 06:18 40.703993 -74.168062 358 14ft 15kts
01-Dec-22 06:19 40.704187 -74.167368 183 14ft 0kts
01-Dec-22 06:20 40.704187 -74.167368 183 14ft 0kts
01-Dec-22 06:21 40.704187 -74.167368 183 14ft 0kts
01-Dec-22 06:22 40.704187 -74.167368 183 14ft 0kts

Navigation Log

Ident Type
Flight plan parsing failed, navigation log unavailable